BWA2296 EGNT-EICK
Flight info
| Callsign | BWA2296 |
|---|---|
| Flight time | 1h 5m |
| Altitude | 34000 |
| Route | GIRLI P18 GASKO P16 RIBEL UP16 CROFT Y70 KOLID UL70 PENIL M144 BAGSO DCT TISMO TISMO1G |
| Aircraft | A321/M-SDE3FGHIRWY/LB1 |
Departure
| Time | 2026-05-04 23:02 |
|---|---|
| Airport | Newcastle International Airport (EGNT) |
Arrival
| Time | 2026-05-05 00:07 |
|---|---|
| Airport | Cork International Airport (EICK) |
| Time | Latitude | Longitude | Altitude | Speed | Heading |
|---|---|---|---|---|---|
| 2026-05-04 22:53 | 55.03803 | -1.70435 | 254 ft | 0 kts | 245° |
| 2026-05-04 22:56 | 55.03803 | -1.70436 | 254 ft | 1 kts | 244° |
| 2026-05-04 22:57 | 55.03796 | -1.70435 | 255 ft | 1 kts | 177° |
| 2026-05-04 22:57 | 55.03789 | -1.70407 | 255 ft | 6 kts | 109° |
| 2026-05-04 22:57 | 55.03780 | -1.70314 | 255 ft | 7 kts | 93° |
| 2026-05-04 22:57 | 55.03779 | -1.70234 | 256 ft | 8 kts | 94° |
| 2026-05-04 22:58 | 55.03773 | -1.70050 | 257 ft | 23 kts | 92° |
| 2026-05-04 22:58 | 55.03796 | -1.69728 | 257 ft | 28 kts | 77° |
| 2026-05-04 22:58 | 55.03862 | -1.69410 | 255 ft | 28 kts | 65° |
| 2026-05-04 22:58 | 55.03943 | -1.69105 | 252 ft | 28 kts | 65° |
| 2026-05-04 22:59 | 55.04024 | -1.68800 | 249 ft | 28 kts | 66° |
| 2026-05-04 22:59 | 55.04106 | -1.68495 | 246 ft | 28 kts | 64° |
| 2026-05-04 22:59 | 55.04186 | -1.68188 | 243 ft | 28 kts | 66° |
| 2026-05-04 22:59 | 55.04268 | -1.67881 | 239 ft | 28 kts | 64° |
| 2026-05-04 23:00 | 55.04336 | -1.67619 | 237 ft | 13 kts | 75° |
| 2026-05-04 23:00 | 55.04330 | -1.67467 | 238 ft | 13 kts | 97° |
| 2026-05-04 23:00 | 55.04280 | -1.67376 | 238 ft | 10 kts | 161° |
| 2026-05-04 23:00 | 55.04222 | -1.67385 | 236 ft | 8 kts | 217° |
| 2026-05-04 23:01 | 55.04181 | -1.67515 | 237 ft | 23 kts | 245° |
| 2026-05-04 23:01 | 55.03998 | -1.68214 | 245 ft | 99 kts | 245° |
| 2026-05-04 23:01 | 55.03626 | -1.69605 | 264 ft | 154 kts | 245° |
| 2026-05-04 23:01 | 55.03148 | -1.71351 | 826 ft | 159 kts | 245° |
| 2026-05-04 23:02 | 55.02662 | -1.73092 | 1474 ft | 164 kts | 246° |
| 2026-05-04 23:02 | 55.02134 | -1.74936 | 2035 ft | 171 kts | 237° |
| 2026-05-04 23:02 | 55.01132 | -1.76074 | 2335 ft | 187 kts | 192° |
| 2026-05-04 23:02 | 54.99772 | -1.76348 | 2472 ft | 205 kts | 195° |
| 2026-05-04 23:03 | 54.98400 | -1.77228 | 2622 ft | 216 kts | 204° |
| 2026-05-04 23:03 | 54.96943 | -1.78240 | 2749 ft | 237 kts | 204° |
| 2026-05-04 23:03 | 54.95333 | -1.79349 | 3088 ft | 257 kts | 204° |
| 2026-05-04 23:03 | 54.93655 | -1.80495 | 3796 ft | 261 kts | 203° |
| 2026-05-04 23:04 | 54.91946 | -1.81655 | 4571 ft | 265 kts | 203° |
| 2026-05-04 23:04 | 54.90220 | -1.82827 | 5348 ft | 268 kts | 202° |
| 2026-05-04 23:04 | 54.88475 | -1.84010 | 6109 ft | 270 kts | 202° |
| 2026-05-04 23:04 | 54.86715 | -1.85202 | 6856 ft | 273 kts | 202° |
| 2026-05-04 23:05 | 54.84931 | -1.86409 | 7571 ft | 277 kts | 202° |
| 2026-05-04 23:05 | 54.83088 | -1.87477 | 7923 ft | 281 kts | 192° |
| 2026-05-04 23:05 | 54.81135 | -1.87677 | 8019 ft | 283 kts | 175° |
| 2026-05-04 23:05 | 54.79223 | -1.86880 | 8032 ft | 284 kts | 158° |
| 2026-05-04 23:06 | 54.77433 | -1.85428 | 8032 ft | 284 kts | 155° |
| 2026-05-04 23:06 | 54.75644 | -1.83965 | 8037 ft | 284 kts | 155° |
| 2026-05-04 23:06 | 54.73850 | -1.82510 | 8039 ft | 285 kts | 156° |
| 2026-05-04 23:06 | 54.72013 | -1.81265 | 8044 ft | 284 kts | 167° |
| 2026-05-04 23:07 | 54.70063 | -1.80859 | 8109 ft | 285 kts | 183° |
| 2026-05-04 23:07 | 54.68101 | -1.81325 | 8813 ft | 285 kts | 192° |
| 2026-05-04 23:07 | 54.66147 | -1.81958 | 9522 ft | 287 kts | 192° |
| 2026-05-04 23:07 | 54.64173 | -1.82574 | 10195 ft | 290 kts | 192° |
| 2026-05-04 23:08 | 54.62126 | -1.83205 | 10440 ft | 310 kts | 192° |
| 2026-05-04 23:08 | 54.59930 | -1.83884 | 10572 ft | 331 kts | 192° |
| 2026-05-04 23:08 | 54.57609 | -1.84603 | 10916 ft | 344 kts | 192° |
| 2026-05-04 23:08 | 54.55242 | -1.85339 | 11513 ft | 348 kts | 192° |
| 2026-05-04 23:09 | 54.52881 | -1.86079 | 12124 ft | 351 kts | 193° |
| 2026-05-04 23:09 | 54.50472 | -1.86840 | 12745 ft | 354 kts | 193° |
| 2026-05-04 23:09 | 54.48041 | -1.87608 | 13356 ft | 357 kts | 193° |
| 2026-05-04 23:09 | 54.45591 | -1.88382 | 13962 ft | 359 kts | 192° |
| 2026-05-04 23:10 | 54.43124 | -1.89158 | 14548 ft | 362 kts | 192° |
| 2026-05-04 23:10 | 54.40636 | -1.89936 | 15120 ft | 365 kts | 192° |
| 2026-05-04 23:10 | 54.38122 | -1.90718 | 15693 ft | 368 kts | 192° |
| 2026-05-04 23:10 | 54.35593 | -1.91502 | 16244 ft | 371 kts | 192° |
| 2026-05-04 23:11 | 54.33046 | -1.92294 | 16787 ft | 373 kts | 192° |
| 2026-05-04 23:11 | 54.30483 | -1.93094 | 17315 ft | 376 kts | 192° |
| 2026-05-04 23:11 | 54.27902 | -1.93898 | 17823 ft | 379 kts | 192° |
| 2026-05-04 23:11 | 54.25315 | -1.94801 | 18322 ft | 380 kts | 197° |
| 2026-05-04 23:12 | 54.22842 | -1.96407 | 18793 ft | 381 kts | 208° |
| 2026-05-04 23:12 | 54.20585 | -1.98796 | 19235 ft | 383 kts | 219° |
| 2026-05-04 23:12 | 54.18595 | -2.01829 | 19682 ft | 385 kts | 224° |
| 2026-05-04 23:12 | 54.16644 | -2.04986 | 20112 ft | 388 kts | 224° |
| 2026-05-04 23:13 | 54.14672 | -2.08158 | 20569 ft | 391 kts | 224° |
| 2026-05-04 23:13 | 54.12681 | -2.11343 | 20972 ft | 394 kts | 224° |
| 2026-05-04 23:13 | 54.10673 | -2.14543 | 21739 ft | 396 kts | 224° |
| 2026-05-04 23:13 | 54.08639 | -2.17777 | 21639 ft | 402 kts | 223° |
| 2026-05-04 23:14 | 54.06593 | -2.21022 | 22103 ft | 402 kts | 223° |
| 2026-05-04 23:14 | 54.04542 | -2.24272 | 22526 ft | 404 kts | 223° |
| 2026-05-04 23:14 | 54.02400 | -2.27389 | 22900 ft | 407 kts | 216° |
| 2026-05-04 23:14 | 53.99969 | -2.29900 | 23264 ft | 410 kts | 206° |
| 2026-05-04 23:15 | 53.97322 | -2.31750 | 23635 ft | 413 kts | 201° |
| 2026-05-04 23:15 | 53.94628 | -2.33481 | 23995 ft | 416 kts | 201° |
| 2026-05-04 23:15 | 53.91917 | -2.35219 | 24362 ft | 418 kts | 201° |
| 2026-05-04 23:15 | 53.89191 | -2.36968 | 24707 ft | 420 kts | 201° |
| 2026-05-04 23:16 | 53.86450 | -2.38728 | 25038 ft | 423 kts | 201° |
| 2026-05-04 23:16 | 53.83687 | -2.40499 | 25362 ft | 425 kts | 201° |
| 2026-05-04 23:16 | 53.80910 | -2.42275 | 25672 ft | 428 kts | 201° |
| 2026-05-04 23:16 | 53.78122 | -2.44053 | 25992 ft | 430 kts | 201° |
| 2026-05-04 23:17 | 53.75330 | -2.45832 | 26295 ft | 433 kts | 201° |
| 2026-05-04 23:17 | 53.72541 | -2.47607 | 26601 ft | 435 kts | 201° |
| 2026-05-04 23:17 | 53.69707 | -2.49413 | 26894 ft | 437 kts | 201° |
| 2026-05-04 23:17 | 53.66954 | -2.51624 | 27187 ft | 439 kts | 211° |
| 2026-05-04 23:18 | 53.64469 | -2.54633 | 27460 ft | 440 kts | 222° |
| 2026-05-04 23:18 | 53.62345 | -2.58350 | 27736 ft | 442 kts | 232° |
| 2026-05-04 23:18 | 53.60644 | -2.62659 | 28020 ft | 443 kts | 243° |
| 2026-05-04 23:18 | 53.59387 | -2.67408 | 28281 ft | 445 kts | 248° |
| 2026-05-04 23:19 | 53.58381 | -2.72324 | 28538 ft | 446 kts | 256° |
| 2026-05-04 23:19 | 53.57818 | -2.77462 | 28773 ft | 447 kts | 265° |
| 2026-05-04 23:19 | 53.57744 | -2.82691 | 29027 ft | 448 kts | 274° |
| 2026-05-04 23:19 | 53.58001 | -2.87917 | 29270 ft | 450 kts | 275° |
| 2026-05-04 23:20 | 53.58259 | -2.93113 | 29518 ft | 451 kts | 275° |
| 2026-05-04 23:20 | 53.58519 | -2.98453 | 29771 ft | 453 kts | 275° |
| 2026-05-04 23:20 | 53.58771 | -3.03673 | 30009 ft | 455 kts | 275° |
| 2026-05-04 23:20 | 53.59024 | -3.08994 | 30288 ft | 455 kts | 275° |
| 2026-05-04 23:21 | 53.59273 | -3.14304 | 30631 ft | 454 kts | 275° |
| 2026-05-04 23:21 | 53.59520 | -3.19594 | 30973 ft | 453 kts | 275° |
| 2026-05-04 23:21 | 53.59765 | -3.24888 | 31315 ft | 452 kts | 275° |
| 2026-05-04 23:21 | 53.60007 | -3.30163 | 31649 ft | 451 kts | 275° |
| 2026-05-04 23:22 | 53.60250 | -3.35436 | 31977 ft | 451 kts | 275° |
| 2026-05-04 23:22 | 53.60490 | -3.40686 | 32308 ft | 450 kts | 275° |
| 2026-05-04 23:22 | 53.60725 | -3.45932 | 32635 ft | 449 kts | 275° |
| 2026-05-04 23:22 | 53.60954 | -3.51180 | 32958 ft | 448 kts | 275° |
| 2026-05-04 23:23 | 53.61176 | -3.56406 | 33278 ft | 447 kts | 275° |
| 2026-05-04 23:23 | 53.61393 | -3.61601 | 33587 ft | 446 kts | 275° |
| 2026-05-04 23:23 | 53.61613 | -3.66806 | 33892 ft | 444 kts | 276° |
| 2026-05-04 23:23 | 53.61835 | -3.72010 | 34052 ft | 444 kts | 276° |
| 2026-05-04 23:24 | 53.62265 | -3.82294 | 34084 ft | 438 kts | 276° |
| 2026-05-04 23:24 | 53.62685 | -3.92495 | 34082 ft | 436 kts | 276° |
| 2026-05-04 23:25 | 53.63097 | -4.02695 | 34082 ft | 436 kts | 276° |
| 2026-05-04 23:25 | 53.63428 | -4.11170 | 34078 ft | 436 kts | 276° |
| 2026-05-04 23:26 | 53.63817 | -4.21386 | 34082 ft | 437 kts | 275° |
| 2026-05-04 23:26 | 53.64190 | -4.31591 | 34076 ft | 437 kts | 275° |
| 2026-05-04 23:27 | 53.64566 | -4.41816 | 34077 ft | 437 kts | 275° |
| 2026-05-04 23:27 | 53.64934 | -4.52040 | 34075 ft | 437 kts | 275° |
| 2026-05-04 23:28 | 53.65295 | -4.62269 | 34071 ft | 437 kts | 275° |
| 2026-05-04 23:28 | 53.65645 | -4.72514 | 34065 ft | 438 kts | 275° |
| 2026-05-04 23:29 | 53.65982 | -4.82766 | 34069 ft | 439 kts | 275° |
| 2026-05-04 23:29 | 53.66311 | -4.92967 | 34071 ft | 439 kts | 275° |
| 2026-05-04 23:30 | 53.66642 | -5.03260 | 34076 ft | 440 kts | 275° |
| 2026-05-04 23:30 | 53.66963 | -5.13570 | 34081 ft | 440 kts | 275° |
| 2026-05-04 23:31 | 53.67279 | -5.23880 | 34079 ft | 440 kts | 275° |
| 2026-05-04 23:31 | 53.67568 | -5.34184 | 34087 ft | 440 kts | 274° |
| 2026-05-04 23:32 | 53.67329 | -5.44479 | 34083 ft | 442 kts | 259° |
| 2026-05-04 23:32 | 53.65065 | -5.54035 | 34090 ft | 446 kts | 239° |
| 2026-05-04 23:33 | 53.63189 | -5.58206 | 34088 ft | 448 kts | 228° |
| 2026-05-04 23:33 | 53.61008 | -5.61965 | 34084 ft | 448 kts | 226° |
| 2026-05-04 23:33 | 53.56614 | -5.69434 | 34086 ft | 449 kts | 226° |
| 2026-05-04 23:34 | 53.52219 | -5.76900 | 34091 ft | 449 kts | 226° |
| 2026-05-04 23:34 | 53.47825 | -5.84364 | 34097 ft | 450 kts | 226° |
| 2026-05-04 23:35 | 53.43417 | -5.91811 | 34101 ft | 450 kts | 226° |
| 2026-05-04 23:35 | 53.38991 | -5.99248 | 34104 ft | 450 kts | 226° |
| 2026-05-04 23:36 | 53.34555 | -6.06687 | 34099 ft | 451 kts | 226° |
| 2026-05-04 23:36 | 53.30107 | -6.14116 | 34096 ft | 452 kts | 226° |
| 2026-05-04 23:37 | 53.25645 | -6.21549 | 34091 ft | 453 kts | 226° |
| 2026-05-04 23:37 | 53.21181 | -6.28971 | 34086 ft | 454 kts | 226° |
| 2026-05-04 23:38 | 53.16705 | -6.36406 | 34089 ft | 455 kts | 226° |
| 2026-05-04 23:38 | 53.12206 | -6.43831 | 34092 ft | 456 kts | 225° |
| 2026-05-04 23:39 | 53.07689 | -6.51267 | 34087 ft | 457 kts | 225° |
| 2026-05-04 23:39 | 53.03163 | -6.58693 | 34096 ft | 458 kts | 225° |
| 2026-05-04 23:40 | 52.98646 | -6.66078 | 34096 ft | 459 kts | 225° |
| 2026-05-04 23:40 | 52.94085 | -6.73517 | 34079 ft | 461 kts | 225° |
| 2026-05-04 23:41 | 52.89494 | -6.80983 | 34082 ft | 464 kts | 225° |
| 2026-05-04 23:41 | 52.84860 | -6.88485 | 34086 ft | 466 kts | 225° |
| 2026-05-04 23:42 | 52.80219 | -6.95999 | 34083 ft | 468 kts | 225° |
| 2026-05-04 23:42 | 52.75546 | -7.03542 | 34094 ft | 470 kts | 225° |
| 2026-05-04 23:43 | 52.70861 | -7.11052 | 34091 ft | 470 kts | 225° |
| 2026-05-04 23:43 | 52.66150 | -7.18574 | 34100 ft | 471 kts | 224° |
| 2026-05-04 23:44 | 52.61431 | -7.26091 | 34102 ft | 472 kts | 224° |
| 2026-05-04 23:44 | 52.56748 | -7.33550 | 34103 ft | 473 kts | 224° |
| 2026-05-04 23:45 | 52.52008 | -7.41076 | 34104 ft | 474 kts | 224° |
| 2026-05-04 23:45 | 52.47253 | -7.48589 | 34110 ft | 474 kts | 224° |
| 2026-05-04 23:46 | 52.42493 | -7.56088 | 34112 ft | 475 kts | 224° |
| 2026-05-04 23:46 | 52.37722 | -7.63589 | 34110 ft | 476 kts | 224° |
| 2026-05-04 23:47 | 52.32930 | -7.71096 | 34110 ft | 477 kts | 224° |
| 2026-05-04 23:47 | 52.28120 | -7.78601 | 34111 ft | 478 kts | 224° |
| 2026-05-04 23:48 | 52.23330 | -7.86045 | 34116 ft | 480 kts | 224° |
| 2026-05-04 23:48 | 52.20916 | -7.89788 | 33664 ft | 480 kts | 224° |
| 2026-05-04 23:48 | 52.18461 | -7.93590 | 32506 ft | 492 kts | 224° |
| 2026-05-04 23:49 | 52.15974 | -7.97438 | 31739 ft | 494 kts | 223° |
| 2026-05-04 23:49 | 52.13240 | -8.00777 | 31101 ft | 490 kts | 206° |
| 2026-05-04 23:49 | 52.10090 | -8.02749 | 30503 ft | 483 kts | 192° |
| 2026-05-04 23:49 | 52.06838 | -8.04140 | 29884 ft | 482 kts | 192° |
| 2026-05-04 23:50 | 52.03603 | -8.05485 | 29309 ft | 479 kts | 192° |
| 2026-05-04 23:50 | 52.00390 | -8.06802 | 28765 ft | 475 kts | 192° |
| 2026-05-04 23:50 | 51.97203 | -8.08106 | 28259 ft | 470 kts | 192° |
| 2026-05-04 23:50 | 51.94043 | -8.09405 | 27747 ft | 466 kts | 192° |
| 2026-05-04 23:51 | 51.90935 | -8.10683 | 27467 ft | 455 kts | 192° |
| 2026-05-04 23:51 | 51.87934 | -8.11922 | 27294 ft | 432 kts | 192° |
| 2026-05-04 23:51 | 51.85086 | -8.13099 | 26725 ft | 415 kts | 192° |
| 2026-05-04 23:51 | 51.82322 | -8.14235 | 25984 ft | 405 kts | 192° |
| 2026-05-04 23:52 | 51.79622 | -8.15346 | 25207 ft | 397 kts | 192° |
| 2026-05-04 23:52 | 51.76973 | -8.16436 | 24425 ft | 389 kts | 192° |
| 2026-05-04 23:52 | 51.74370 | -8.17503 | 23513 ft | 385 kts | 192° |
| 2026-05-04 23:52 | 51.71776 | -8.18564 | 22492 ft | 384 kts | 192° |
| 2026-05-04 23:53 | 51.69224 | -8.19607 | 21482 ft | 382 kts | 192° |
| 2026-05-04 23:53 | 51.66675 | -8.20751 | 20467 ft | 380 kts | 201° |
| 2026-05-04 23:53 | 51.64404 | -8.22882 | 19461 ft | 378 kts | 216° |
| 2026-05-04 23:53 | 51.62425 | -8.25634 | 18461 ft | 375 kts | 224° |
| 2026-05-04 23:54 | 51.60730 | -8.28771 | 17457 ft | 370 kts | 240° |
| 2026-05-04 23:54 | 51.59912 | -8.32615 | 16477 ft | 363 kts | 266° |
| 2026-05-04 23:54 | 51.60220 | -8.36553 | 15515 ft | 353 kts | 294° |
| 2026-05-04 23:54 | 51.61557 | -8.39748 | 14585 ft | 342 kts | 321° |
| 2026-05-04 23:55 | 51.63596 | -8.41524 | 13680 ft | 331 kts | 349° |
| 2026-05-04 23:55 | 51.65856 | -8.41858 | 12814 ft | 323 kts | 359° |
| 2026-05-04 23:55 | 51.70284 | -8.42093 | 11114 ft | 314 kts | 359° |
| 2026-05-04 23:56 | 51.72430 | -8.41819 | 10281 ft | 308 kts | 13° |
| 2026-05-04 23:56 | 51.74451 | -8.40786 | 9470 ft | 302 kts | 22° |
| 2026-05-04 23:56 | 51.76278 | -8.39177 | 8663 ft | 298 kts | 36° |
| 2026-05-04 23:56 | 51.77720 | -8.36825 | 7874 ft | 294 kts | 55° |
| 2026-05-04 23:57 | 51.78588 | -8.33865 | 7093 ft | 291 kts | 69° |
| 2026-05-04 23:57 | 51.79258 | -8.30816 | 6325 ft | 285 kts | 69° |
| 2026-05-04 23:57 | 51.79701 | -8.27726 | 5602 ft | 282 kts | 85° |
| 2026-05-04 23:57 | 51.79545 | -8.24663 | 5210 ft | 267 kts | 102° |
| 2026-05-04 23:58 | 51.78891 | -8.21952 | 4838 ft | 254 kts | 118° |
| 2026-05-04 23:58 | 51.77832 | -8.19739 | 4457 ft | 247 kts | 135° |
| 2026-05-04 23:58 | 51.76464 | -8.18112 | 4093 ft | 244 kts | 152° |
| 2026-05-04 23:58 | 51.74911 | -8.17211 | 4569 ft | 226 kts | 170° |
| 2026-05-04 23:59 | 51.73338 | -8.16996 | 5135 ft | 251 kts | 180° |
| 2026-05-04 23:59 | 51.71583 | -8.17401 | 4834 ft | 254 kts | 199° |
| 2026-05-04 23:59 | 51.70027 | -8.18568 | 4779 ft | 239 kts | 215° |
| 2026-05-04 23:59 | 51.68802 | -8.20228 | 4772 ft | 222 kts | 231° |
| 2026-05-05 00:00 | 51.67950 | -8.22155 | 4800 ft | 200 kts | 244° |
| 2026-05-05 00:00 | 51.67749 | -8.22793 | 4793 ft | 194 kts | 248° |
| 2026-05-05 00:00 | 51.67001 | -8.25864 | 4773 ft | 160 kts | 254° |
| 2026-05-05 00:00 | 51.66653 | -8.27445 | 4760 ft | 141 kts | 255° |
| 2026-05-05 00:01 | 51.66326 | -8.28903 | 4592 ft | 149 kts | 253° |
| 2026-05-05 00:01 | 51.65971 | -8.30502 | 4871 ft | 155 kts | 254° |
| 2026-05-05 00:01 | 51.65576 | -8.32362 | 4656 ft | 188 kts | 255° |
| 2026-05-05 00:01 | 51.65413 | -8.34455 | 4734 ft | 191 kts | 275° |
| 2026-05-05 00:02 | 51.65737 | -8.36589 | 4496 ft | 203 kts | 296° |
| 2026-05-05 00:02 | 51.66524 | -8.38331 | 4031 ft | 184 kts | 319° |
| 2026-05-05 00:02 | 51.67550 | -8.39346 | 3740 ft | 165 kts | 339° |
| 2026-05-05 00:02 | 51.68577 | -8.39950 | 3512 ft | 151 kts | 341° |
| 2026-05-05 00:03 | 51.69527 | -8.40507 | 3307 ft | 145 kts | 341° |
| 2026-05-05 00:03 | 51.70469 | -8.41060 | 3118 ft | 144 kts | 341° |
| 2026-05-05 00:03 | 51.71404 | -8.41610 | 2930 ft | 143 kts | 342° |
| 2026-05-05 00:03 | 51.72343 | -8.42162 | 2738 ft | 144 kts | 342° |
| 2026-05-05 00:04 | 51.73283 | -8.42715 | 2553 ft | 143 kts | 341° |
| 2026-05-05 00:04 | 51.74209 | -8.43260 | 2359 ft | 141 kts | 340° |
| 2026-05-05 00:04 | 51.75130 | -8.43801 | 2170 ft | 140 kts | 340° |
| 2026-05-05 00:04 | 51.76046 | -8.44341 | 1986 ft | 140 kts | 340° |
| 2026-05-05 00:05 | 51.76957 | -8.44877 | 1798 ft | 139 kts | 339° |
| 2026-05-05 00:05 | 51.77861 | -8.45410 | 1618 ft | 138 kts | 339° |
| 2026-05-05 00:05 | 51.78764 | -8.45943 | 1433 ft | 138 kts | 338° |
| 2026-05-05 00:05 | 51.79667 | -8.46468 | 1280 ft | 138 kts | 339° |
| 2026-05-05 00:06 | 51.80566 | -8.47000 | 1105 ft | 138 kts | 339° |
| 2026-05-05 00:06 | 51.81468 | -8.47529 | 789 ft | 138 kts | 339° |
| 2026-05-05 00:06 | 51.82357 | -8.48060 | 653 ft | 136 kts | 338° |
| 2026-05-05 00:06 | 51.83253 | -8.48597 | 515 ft | 138 kts | 339° |
| 2026-05-05 00:07 | 51.84091 | -8.49087 | 477 ft | 100 kts | 340° |
| 2026-05-05 00:07 | 51.84461 | -8.49305 | 482 ft | 13 kts | 340° |
| 2026-05-05 00:07 | 51.84486 | -8.49320 | 485 ft | 3 kts | 340° |
| 2026-05-05 00:07 | 51.84541 | -8.49351 | 482 ft | 14 kts | 341° |
| 2026-05-05 00:08 | 51.84660 | -8.49414 | 489 ft | 19 kts | 341° |
| 2026-05-05 00:08 | 51.84766 | -8.49437 | 488 ft | 19 kts | 46° |
| 2026-05-05 00:08 | 51.84799 | -8.49326 | 487 ft | 11 kts | 68° |
| 2026-05-05 00:08 | 51.84845 | -8.49239 | 502 ft | 11 kts | 23° |
| 2026-05-05 00:09 | 51.84885 | -8.49118 | 503 ft | 13 kts | 70° |
| 2026-05-05 00:09 | 51.84896 | -8.49069 | 503 ft | 0 kts | 70° |